createdAt,value
2019-04-04T00:01:40.347Z,100.00
2019-04-04T00:04:08.998Z,100.00
2019-04-04T00:06:37.720Z,100.00
2019-04-04T00:09:09.813Z,100.00
2019-04-04T00:11:38.615Z,100.00
2019-04-04T00:14:07.442Z,100.00
2019-04-04T00:16:36.183Z,100.00
2019-04-04T00:19:04.990Z,100.00
2019-04-04T00:21:34.537Z,100.00
2019-04-04T00:24:03.465Z,100.00
2019-04-04T00:26:32.197Z,100.00
2019-04-04T00:29:01.487Z,100.00
2019-04-04T00:31:30.429Z,100.00
2019-04-04T00:33:59.171Z,100.00
2019-04-04T00:36:27.893Z,100.00
2019-04-04T00:38:56.590Z,100.00
2019-04-04T00:41:25.326Z,100.00
2019-04-04T00:43:54.015Z,100.00
2019-04-04T00:46:22.775Z,100.00
2019-04-04T00:48:51.476Z,100.00
2019-04-04T00:51:20.186Z,100.00
2019-04-04T00:53:48.978Z,100.00
2019-04-04T00:56:18.656Z,100.00
2019-04-04T00:58:47.474Z,100.00
2019-04-04T01:01:16.704Z,100.00
2019-04-04T01:03:45.496Z,100.00
2019-04-04T01:06:14.299Z,100.00
2019-04-04T01:08:43.033Z,100.00
2019-04-04T01:11:12.033Z,100.00
2019-04-04T01:13:40.775Z,100.00
2019-04-04T01:16:09.579Z,100.00
2019-04-04T01:18:38.289Z,100.00
2019-04-04T01:21:07.062Z,100.00
2019-04-04T01:23:35.792Z,100.00
2019-04-04T01:26:04.669Z,100.00
2019-04-04T01:28:33.419Z,100.00
2019-04-04T01:31:02.145Z,100.00
2019-04-04T01:33:30.889Z,100.00
2019-04-04T01:35:59.591Z,100.00
2019-04-04T01:38:29.068Z,100.00
2019-04-04T01:40:58.702Z,100.00
2019-04-04T01:43:27.494Z,100.00
2019-04-04T01:45:56.208Z,100.00
2019-04-04T01:48:25.145Z,100.00
2019-04-04T01:50:54.289Z,100.00
2019-04-04T01:53:23.113Z,100.00
2019-04-04T01:55:51.940Z,100.00
2019-04-04T01:58:20.726Z,100.00
2019-04-04T02:00:49.459Z,100.00
2019-04-04T02:03:18.262Z,100.00
2019-04-04T02:05:46.974Z,100.00
2019-04-04T02:08:15.703Z,100.00
2019-04-04T02:10:44.439Z,100.00
2019-04-04T02:13:13.213Z,100.00
2019-04-04T02:15:42.808Z,100.00
2019-04-04T02:18:12.409Z,100.00
2019-04-04T02:20:41.141Z,100.00
2019-04-04T02:23:09.842Z,100.00
2019-04-04T02:25:38.673Z,100.00
2019-04-04T02:28:08.872Z,100.00
2019-04-04T02:30:37.939Z,100.00
2019-04-04T02:33:06.725Z,100.00
2019-04-04T02:35:35.539Z,100.00
2019-04-04T02:38:04.324Z,100.00
2019-04-04T02:40:33.117Z,100.00
2019-04-04T02:43:01.982Z,100.00
2019-04-04T02:45:30.708Z,100.00
2019-04-04T02:47:59.438Z,100.00
2019-04-04T02:50:28.182Z,100.00
2019-04-04T02:52:56.915Z,100.00
2019-04-04T02:55:29.852Z,100.00
2019-04-04T02:57:56.244Z,100.00
2019-04-04T03:00:26.915Z,100.00
2019-04-04T03:02:55.737Z,100.00
2019-04-04T03:05:24.525Z,100.00
2019-04-04T03:07:53.322Z,100.00
2019-04-04T03:10:22.129Z,100.00
2019-04-04T03:12:50.921Z,100.00
2019-04-04T03:15:19.746Z,100.00
2019-04-04T03:17:48.542Z,100.00
2019-04-04T03:20:17.676Z,100.00
2019-04-04T03:22:46.489Z,100.00
2019-04-04T03:25:15.731Z,100.00
2019-04-04T03:27:44.630Z,100.00
2019-04-04T03:30:16.624Z,100.00
2019-04-04T03:32:51.781Z,100.00
2019-04-04T03:35:14.419Z,100.00
2019-04-04T03:37:46.048Z,100.00
2019-04-04T03:40:13.688Z,100.00
2019-04-04T03:42:44.354Z,100.00
2019-04-04T03:45:12.980Z,100.00
2019-04-04T03:47:44.462Z,100.00
2019-04-04T03:50:12.255Z,100.00
2019-04-04T03:52:44.262Z,100.00
2019-04-04T03:55:11.437Z,100.00
2019-04-04T03:57:40.183Z,100.00
2019-04-04T04:00:09.360Z,100.00
2019-04-04T04:02:38.156Z,100.00
2019-04-04T04:05:22.375Z,100.00
2019-04-04T04:07:51.102Z,100.00
2019-04-04T04:10:19.826Z,100.00
2019-04-04T04:12:48.772Z,100.00
2019-04-04T04:15:17.502Z,100.00
2019-04-04T04:17:46.533Z,100.00
2019-04-04T04:20:15.547Z,100.00
2019-04-04T04:22:44.277Z,100.00
2019-04-04T04:25:13.069Z,100.00
2019-04-04T04:27:41.806Z,100.00
2019-04-04T04:30:12.556Z,100.00
2019-04-04T04:32:41.283Z,100.00
2019-04-04T04:35:10.067Z,100.00
2019-04-04T04:37:38.853Z,100.00
2019-04-04T04:40:07.704Z,100.00
2019-04-04T04:42:36.446Z,100.00
2019-04-04T04:45:05.700Z,100.00
2019-04-04T04:47:34.416Z,100.00
2019-04-04T04:50:03.137Z,100.00
2019-04-04T04:52:31.861Z,100.00
2019-04-04T04:55:00.721Z,100.00
2019-04-04T04:57:30.355Z,100.00
2019-04-04T04:59:59.432Z,100.00
2019-04-04T05:02:28.186Z,100.00
2019-04-04T05:04:59.028Z,100.00
2019-04-04T05:07:27.336Z,100.00
2019-04-04T05:09:55.961Z,100.00
2019-04-04T05:12:24.672Z,100.00
2019-04-04T05:14:53.330Z,100.00
2019-04-04T05:17:22.061Z,100.00
2019-04-04T05:19:50.816Z,100.00
2019-04-04T05:22:19.758Z,100.00
2019-04-04T05:25:06.988Z,100.00
2019-04-04T05:27:18.908Z,100.00
2019-04-04T05:32:58.842Z,100.00
2019-04-04T05:35:27.478Z,100.00
2019-04-04T05:37:56.182Z,100.00
2019-04-04T05:40:24.922Z,100.00
2019-04-04T05:42:53.783Z,100.00
2019-04-04T05:45:22.524Z,100.00
2019-04-04T05:47:51.158Z,100.00
2019-04-04T05:50:21.382Z,100.00
2019-04-04T05:52:50.000Z,100.00
2019-04-04T05:55:20.733Z,100.00
2019-04-04T05:57:50.980Z,100.00
2019-04-04T06:00:20.065Z,100.00
2019-04-04T06:02:49.082Z,100.00
2019-04-04T06:05:17.787Z,100.00
2019-04-04T06:07:46.411Z,100.00
2019-04-04T06:10:18.136Z,100.00
2019-04-04T06:12:46.136Z,100.00
2019-04-04T06:15:15.371Z,100.00
2019-04-04T06:17:44.165Z,100.00
2019-04-04T06:20:15.001Z,100.00
2019-04-04T06:22:43.802Z,100.00
2019-04-04T06:25:12.687Z,100.00
2019-04-04T06:27:41.555Z,100.00
2019-04-04T06:30:11.487Z,100.00
2019-04-04T06:32:40.831Z,100.00
2019-04-04T06:35:09.706Z,100.00
2019-04-04T06:37:38.977Z,100.00
2019-04-04T06:40:08.245Z,100.00
2019-04-04T06:42:37.274Z,100.00
2019-04-04T06:45:06.515Z,100.00
2019-04-04T06:47:35.248Z,100.00
2019-04-04T06:50:07.139Z,100.00
2019-04-04T06:52:35.051Z,100.00
2019-04-04T06:55:03.988Z,100.00
2019-04-04T06:57:34.211Z,100.00
2019-04-04T07:00:03.552Z,100.00
2019-04-04T07:02:32.237Z,100.00
2019-04-04T07:05:00.956Z,100.00
2019-04-04T07:07:30.213Z,100.00
2019-04-04T07:09:58.945Z,100.00
2019-04-04T07:12:28.641Z,100.00
2019-04-04T07:14:57.649Z,100.00
2019-04-04T07:17:26.288Z,100.00
2019-04-04T07:19:54.946Z,100.00
2019-04-04T07:22:24.917Z,100.00
2019-04-04T07:24:54.148Z,100.00
2019-04-04T07:27:22.816Z,100.00
2019-04-04T07:29:51.444Z,100.00
2019-04-04T07:32:20.084Z,100.00
2019-04-04T07:34:48.728Z,100.00
2019-04-04T07:37:17.442Z,100.00
2019-04-04T07:39:46.010Z,100.00
2019-04-04T07:42:15.877Z,100.00
2019-04-04T07:48:13.109Z,100.00
2019-04-04T07:50:41.751Z,100.00
2019-04-04T07:53:10.384Z,100.00
2019-04-04T07:55:40.095Z,100.00
2019-04-04T07:58:09.367Z,100.00
2019-04-04T08:00:38.104Z,100.00
2019-04-04T08:03:06.828Z,100.00
2019-04-04T08:05:35.591Z,100.00
2019-04-04T08:08:04.241Z,100.00
2019-04-04T08:10:32.873Z,100.00
2019-04-04T08:13:01.516Z,100.00
2019-04-04T08:15:30.328Z,100.00
2019-04-04T08:17:59.039Z,100.00
2019-04-04T08:20:27.691Z,100.00
2019-04-04T08:22:56.371Z,100.00
2019-04-04T08:25:25.006Z,100.00
2019-04-04T08:27:53.689Z,100.00
2019-04-04T08:30:22.318Z,100.00
2019-04-04T08:32:51.127Z,100.00
2019-04-04T08:35:19.767Z,100.00
2019-04-04T08:37:48.403Z,100.00
2019-04-04T08:40:17.129Z,100.00
2019-04-04T08:42:45.782Z,100.00
2019-04-04T08:45:14.478Z,100.00
2019-04-04T08:47:43.140Z,98.88
2019-04-04T08:50:11.835Z,98.86
2019-04-04T08:52:40.488Z,98.24
2019-04-04T08:55:09.189Z,97.55
2019-04-04T08:57:37.816Z,98.60
2019-04-04T09:00:07.065Z,99.42
2019-04-04T09:02:35.763Z,98.01
2019-04-04T09:05:11.751Z,99.37
2019-04-04T09:07:35.245Z,98.63
2019-04-04T09:10:04.409Z,99.50
2019-04-04T09:12:33.034Z,100.00
2019-04-04T09:15:01.677Z,99.46
2019-04-04T09:17:30.405Z,98.45
2019-04-04T09:19:59.042Z,98.30
2019-04-04T09:22:27.668Z,98.67
2019-04-04T09:24:56.283Z,98.44
2019-04-04T09:27:24.900Z,98.20
2019-04-04T09:29:54.804Z,97.65
2019-04-04T09:32:23.441Z,98.07
2019-04-04T09:34:52.078Z,97.30
2019-04-04T09:37:20.771Z,97.39
2019-04-04T09:39:49.426Z,98.88
2019-04-04T09:42:18.104Z,97.82
2019-04-04T09:44:46.757Z,97.40
2019-04-04T09:47:15.418Z,96.50
2019-04-04T09:49:44.064Z,97.15
2019-04-04T09:52:12.684Z,96.41
2019-04-04T09:54:41.301Z,95.92
2019-04-04T09:57:09.962Z,95.09
2019-04-04T09:59:38.604Z,95.96
2019-04-04T10:02:07.389Z,95.60
2019-04-04T10:04:36.191Z,96.73
2019-04-04T10:07:04.971Z,96.64
2019-04-04T10:09:33.713Z,95.87
2019-04-04T10:12:02.402Z,95.60
2019-04-04T10:14:31.080Z,96.28
2019-04-04T10:16:59.728Z,95.70
2019-04-04T10:19:28.330Z,96.19
2019-04-04T10:21:56.975Z,95.42
2019-04-04T10:24:25.630Z,96.26
2019-04-04T10:26:54.373Z,97.23
2019-04-04T10:29:22.979Z,96.20
2019-04-04T10:31:51.622Z,94.87
2019-04-04T10:34:20.239Z,94.68
2019-04-04T10:36:48.868Z,93.75
2019-04-04T10:39:28.254Z,93.44
2019-04-04T10:41:47.915Z,92.69
2019-04-04T10:44:16.583Z,94.00
2019-04-04T10:46:45.254Z,94.20
2019-04-04T10:49:13.982Z,92.58
2019-04-04T10:51:42.743Z,92.55
2019-04-04T10:54:11.462Z,92.83
2019-04-04T10:56:40.167Z,93.27
2019-04-04T10:59:08.906Z,94.54
2019-04-04T11:01:37.655Z,94.11
2019-04-04T11:04:06.335Z,92.97
2019-04-04T11:06:34.949Z,92.47
2019-04-04T11:09:05.058Z,92.88
2019-04-04T11:11:33.718Z,93.21
2019-04-04T11:14:02.338Z,93.37
2019-04-04T11:16:30.978Z,94.33
2019-04-04T11:18:59.622Z,92.55
2019-04-04T11:21:28.293Z,93.04
2019-04-04T11:23:57.210Z,92.63
2019-04-04T11:26:25.944Z,93.50
2019-04-04T11:28:54.696Z,93.44
2019-04-04T11:31:23.326Z,92.21
2019-04-04T11:33:51.959Z,92.51
2019-04-04T11:36:20.582Z,92.19
2019-04-04T11:38:49.213Z,92.34
2019-04-04T11:41:17.903Z,91.56
2019-04-04T11:43:47.951Z,92.42
2019-04-04T11:46:16.756Z,90.82
2019-04-04T11:48:45.631Z,91.48
2019-04-04T11:51:14.278Z,90.72
2019-04-04T11:53:42.895Z,91.25
2019-04-04T11:56:11.603Z,92.85
2019-04-04T11:58:40.286Z,92.92
2019-04-04T12:01:11.183Z,92.24
2019-04-04T12:03:39.851Z,92.21
2019-04-04T12:06:08.474Z,92.59
2019-04-04T12:08:37.148Z,92.82
2019-04-04T12:11:05.851Z,92.47
2019-04-04T12:13:34.316Z,91.68
2019-04-04T12:16:02.911Z,92.14
2019-04-04T12:18:31.638Z,90.68
2019-04-04T12:21:00.289Z,90.24
2019-04-04T12:23:28.946Z,90.74
2019-04-04T12:25:57.547Z,90.50
2019-04-04T12:28:26.163Z,89.58
2019-04-04T12:30:54.798Z,90.46
2019-04-04T12:33:23.416Z,90.82
2019-04-04T12:35:52.614Z,90.99
2019-04-04T12:38:21.257Z,92.18
2019-04-04T12:40:49.869Z,92.87
2019-04-04T12:43:18.523Z,93.22
2019-04-04T12:45:47.399Z,93.18
2019-04-04T12:48:16.053Z,92.41
2019-04-04T12:50:44.816Z,90.94
2019-04-04T12:53:13.449Z,90.95
2019-04-04T12:55:42.118Z,90.49
2019-04-04T12:58:11.050Z,91.55
2019-04-04T13:00:39.752Z,91.92
2019-04-04T13:03:08.378Z,91.40
2019-04-04T13:05:37.003Z,91.07
2019-04-04T13:08:05.693Z,91.59
2019-04-04T13:10:34.403Z,90.37
2019-04-04T13:13:03.010Z,90.85
2019-04-04T13:15:31.645Z,90.91
2019-04-04T13:18:00.297Z,91.77
2019-04-04T13:20:28.934Z,91.61
2019-04-04T13:22:57.558Z,93.98
2019-04-04T13:25:26.272Z,96.13
2019-04-04T13:27:54.885Z,97.38
2019-04-04T13:30:23.670Z,97.59
2019-04-04T13:32:52.289Z,97.55
2019-04-04T13:35:20.995Z,98.34
2019-04-04T13:37:49.618Z,97.53
2019-04-04T13:40:18.336Z,96.66
2019-04-04T13:42:47.034Z,95.49
2019-04-04T13:45:15.670Z,95.34
2019-04-04T13:47:44.381Z,95.03
2019-04-04T13:50:13.101Z,95.81
2019-04-04T13:52:41.729Z,94.64
2019-04-04T13:55:10.506Z,92.41
2019-04-04T13:57:39.598Z,93.50
2019-04-04T14:00:09.362Z,93.92
2019-04-04T14:02:37.963Z,93.14
2019-04-04T14:05:10.613Z,92.21
2019-04-04T14:07:37.390Z,92.66
2019-04-04T14:10:07.102Z,90.50
2019-04-04T14:12:35.820Z,92.55
2019-04-04T14:15:05.147Z,92.26
2019-04-04T14:17:33.777Z,92.38
2019-04-04T14:20:02.403Z,90.96
2019-04-04T14:22:31.065Z,92.09
2019-04-04T14:24:59.669Z,92.58
2019-04-04T14:27:28.369Z,91.03
2019-04-04T14:29:57.067Z,90.75
2019-04-04T14:32:25.767Z,91.72
2019-04-04T14:34:54.408Z,91.09
2019-04-04T14:37:23.019Z,91.16
2019-04-04T14:39:51.653Z,90.99
2019-04-04T14:42:20.294Z,91.25
2019-04-04T14:44:48.926Z,90.95
2019-04-04T14:47:17.561Z,89.47
2019-04-04T14:49:46.190Z,89.77
2019-04-04T14:52:14.818Z,90.64
2019-04-04T14:54:43.422Z,90.38
2019-04-04T14:57:12.046Z,89.89
2019-04-04T14:59:40.671Z,90.02
2019-04-04T15:02:09.309Z,89.57
2019-04-04T15:04:37.974Z,89.67
2019-04-04T15:07:06.674Z,89.89
2019-04-04T15:09:35.301Z,90.46
2019-04-04T15:12:03.919Z,90.07
2019-04-04T15:14:32.579Z,89.48
2019-04-04T15:17:01.167Z,89.34
2019-04-04T15:19:29.789Z,88.81
2019-04-04T15:21:58.417Z,90.62
2019-04-04T15:24:27.046Z,90.63
2019-04-04T15:26:55.773Z,90.54
2019-04-04T15:32:03.502Z,91.47
2019-04-04T15:34:32.123Z,91.71
2019-04-04T15:37:00.790Z,91.29
2019-04-04T15:39:29.410Z,91.54
2019-04-04T15:41:58.035Z,90.68
2019-04-04T15:44:28.693Z,91.59
2019-04-04T15:46:57.291Z,91.20
2019-04-04T15:49:25.979Z,90.73
2019-04-04T15:51:54.602Z,91.54
2019-04-04T15:54:23.221Z,90.59
2019-04-04T15:56:51.831Z,91.34
2019-04-04T15:59:20.453Z,90.50
2019-04-04T16:01:49.145Z,90.63
2019-04-04T16:04:17.786Z,91.54
2019-04-04T16:06:46.477Z,90.89
2019-04-04T16:09:15.151Z,90.55
2019-04-04T16:11:49.336Z,90.04
2019-04-04T16:14:14.207Z,91.39
2019-04-04T16:16:42.840Z,90.66
2019-04-04T16:19:11.477Z,91.67
2019-04-04T16:21:40.110Z,91.39
2019-04-04T16:24:08.736Z,92.48
2019-04-04T16:26:37.370Z,92.62
2019-04-04T16:29:05.984Z,93.31
2019-04-04T16:31:34.688Z,94.24
2019-04-04T16:34:03.395Z,95.18
2019-04-04T16:36:32.061Z,94.52
2019-04-04T16:39:00.762Z,96.53
2019-04-04T16:41:29.444Z,96.96
2019-04-04T16:43:58.082Z,95.76
2019-04-04T16:46:26.704Z,94.52
2019-04-04T16:48:55.319Z,94.16
2019-04-04T16:51:23.969Z,93.73
2019-04-04T16:53:52.568Z,94.56
2019-04-04T16:56:21.204Z,92.94
2019-04-04T16:58:49.865Z,94.11
2019-04-04T17:01:18.525Z,92.68
2019-04-04T17:03:47.164Z,92.56
2019-04-04T17:06:15.906Z,93.70
2019-04-04T17:08:44.511Z,94.56
2019-04-04T17:11:13.129Z,94.56
2019-04-04T17:13:41.765Z,94.19
2019-04-04T17:16:10.654Z,93.51
2019-04-04T17:18:54.075Z,94.15
2019-04-04T17:21:25.163Z,92.95
2019-04-04T17:23:59.462Z,93.03
2019-04-04T17:26:32.241Z,92.73
2019-04-04T17:29:13.246Z,92.13
2019-04-04T17:31:42.324Z,92.91
2019-04-04T17:34:14.738Z,92.35
2019-04-04T17:36:44.671Z,92.53
2019-04-04T17:39:19.157Z,92.86
2019-04-04T17:41:50.878Z,94.65
2019-04-04T17:44:21.716Z,95.53
2019-04-04T17:46:52.808Z,96.00
2019-04-04T17:49:23.246Z,94.67
2019-04-04T17:51:52.641Z,93.56
2019-04-04T17:54:24.542Z,93.92
2019-04-04T17:56:58.475Z,93.60
2019-04-04T17:59:30.369Z,92.88
2019-04-04T18:01:59.499Z,92.82
2019-04-04T18:04:34.787Z,92.29
2019-04-04T18:07:04.778Z,91.85
2019-04-04T18:09:36.527Z,92.74
2019-04-04T18:12:10.195Z,91.36
2019-04-04T18:14:43.901Z,90.87
2019-04-04T18:17:13.164Z,90.67
2019-04-04T18:19:51.407Z,91.15
2019-04-04T18:22:24.780Z,90.05
2019-04-04T18:25:03.408Z,90.56
2019-04-04T18:27:34.003Z,91.84
2019-04-04T18:30:05.552Z,91.26
2019-04-04T18:32:38.337Z,91.42
2019-04-04T18:35:09.866Z,91.41
2019-04-04T18:37:46.081Z,90.85
2019-04-04T18:40:19.643Z,90.93
2019-04-04T18:42:59.664Z,91.00
2019-04-04T18:45:40.615Z,90.97
2019-04-04T18:48:16.052Z,91.93
2019-04-04T18:50:45.207Z,91.77
2019-04-04T18:53:20.247Z,92.44
2019-04-04T18:55:59.292Z,92.30
2019-04-04T18:58:32.232Z,91.79
2019-04-04T19:01:12.715Z,91.69
2019-04-04T19:03:49.702Z,92.04
2019-04-04T19:06:19.857Z,92.52
2019-04-04T19:09:01.207Z,92.32
2019-04-04T19:11:34.407Z,92.12
2019-04-04T19:14:04.058Z,91.97
2019-04-04T19:16:38.124Z,92.26
2019-04-04T19:19:11.797Z,92.69
2019-04-04T19:22:01.474Z,93.74
2019-04-04T19:24:32.908Z,92.12
2019-04-04T19:27:04.348Z,91.73
2019-04-04T19:29:53.750Z,92.31
2019-04-04T19:32:47.926Z,94.16
2019-04-04T19:35:21.348Z,94.50
2019-04-04T19:37:59.958Z,95.15
2019-04-04T19:40:27.308Z,95.13
2019-04-04T19:42:58.018Z,94.86
2019-04-04T19:45:26.848Z,94.72
2019-04-04T19:48:04.334Z,95.15
2019-04-04T19:50:39.176Z,97.08
2019-04-04T19:53:09.822Z,97.41
2019-04-04T19:55:42.427Z,96.85
2019-04-04T19:58:12.650Z,96.29
2019-04-04T20:00:44.488Z,95.90
2019-04-04T20:03:13.927Z,96.92
2019-04-04T20:05:44.618Z,95.51
2019-04-04T20:08:13.812Z,95.16
2019-04-04T20:10:45.539Z,95.09
2019-04-04T20:16:39.312Z,95.47
2019-04-04T20:19:09.139Z,94.22
2019-04-04T20:21:59.446Z,94.34
2019-04-04T20:24:36.033Z,96.02
2019-04-04T20:27:29.489Z,94.93
2019-04-04T20:30:00.141Z,94.58
2019-04-04T20:32:34.964Z,94.87
2019-04-04T20:35:07.807Z,95.99
2019-04-04T20:37:44.721Z,95.71
2019-04-04T20:40:13.970Z,94.83
2019-04-04T20:43:17.545Z,95.53
2019-04-04T20:45:55.886Z,94.40
2019-04-04T20:48:26.832Z,95.93
2019-04-04T20:50:58.555Z,96.46
2019-04-04T20:53:29.375Z,97.27
2019-04-04T20:56:00.414Z,96.47
2019-04-04T20:58:51.330Z,97.26
2019-04-04T21:01:51.741Z,96.79
2019-04-04T21:04:20.872Z,97.38
2019-04-04T21:07:06.027Z,97.29
2019-04-04T21:09:50.441Z,96.84
2019-04-04T21:12:30.220Z,97.81
2019-04-04T21:15:05.056Z,98.26
2019-04-04T21:17:40.215Z,99.00
2019-04-04T21:20:11.126Z,99.44
2019-04-04T21:22:44.553Z,98.58
2019-04-04T21:25:18.373Z,99.19
2019-04-04T21:30:43.587Z,98.44
2019-04-04T21:33:14.717Z,98.87
2019-04-04T21:35:44.238Z,99.49
2019-04-04T21:38:15.608Z,99.99
2019-04-04T21:40:47.070Z,99.71
2019-04-04T21:43:20.058Z,99.46
2019-04-04T21:45:52.839Z,99.11
2019-04-04T21:48:27.044Z,99.31
2019-04-04T21:51:00.922Z,100.00
2019-04-04T21:53:33.723Z,100.00
2019-04-04T21:56:05.872Z,100.00
2019-04-04T21:58:38.950Z,100.00
2019-04-04T22:01:13.688Z,100.00
2019-04-04T22:03:46.731Z,100.00
2019-04-04T22:06:16.667Z,100.00
2019-04-04T22:08:50.841Z,99.97
2019-04-04T22:11:24.096Z,100.00
2019-04-04T22:13:55.726Z,100.00
2019-04-04T22:16:25.687Z,99.44
2019-04-04T22:18:57.570Z,100.00
2019-04-04T22:21:30.452Z,100.00
2019-04-04T22:24:00.913Z,99.87
2019-04-04T22:26:31.128Z,99.79
2019-04-04T22:28:59.967Z,98.78
2019-04-04T22:31:30.341Z,98.74
2019-04-04T22:34:01.775Z,97.19
2019-04-04T22:36:43.901Z,96.77
2019-04-04T22:39:21.219Z,97.38
2019-04-04T22:41:56.597Z,99.64
2019-04-04T22:45:32.646Z,100.00
2019-04-04T22:48:10.094Z,100.00
2019-04-04T22:50:42.226Z,100.00
2019-04-04T22:53:19.616Z,100.00
2019-04-04T22:55:51.811Z,100.00
2019-04-04T22:58:33.107Z,100.00
2019-04-04T23:01:05.916Z,100.00
2019-04-04T23:03:37.210Z,100.00
2019-04-04T23:06:14.884Z,100.00
2019-04-04T23:08:45.527Z,100.00
2019-04-04T23:11:14.958Z,100.00
2019-04-04T23:13:43.606Z,100.00
2019-04-04T23:16:12.234Z,100.00
2019-04-04T23:18:40.886Z,100.00
2019-04-04T23:21:09.522Z,100.00
2019-04-04T23:23:38.161Z,100.00
2019-04-04T23:26:06.891Z,100.00
2019-04-04T23:28:35.543Z,100.00
2019-04-04T23:31:04.200Z,100.00
2019-04-04T23:33:32.857Z,100.00
2019-04-04T23:36:01.559Z,100.00
2019-04-04T23:38:30.253Z,100.00
2019-04-04T23:40:59.028Z,100.00
2019-04-04T23:43:27.653Z,100.00
2019-04-04T23:45:56.276Z,100.00
2019-04-04T23:48:24.923Z,100.00
2019-04-04T23:50:53.585Z,100.00
2019-04-04T23:53:22.230Z,100.00
2019-04-04T23:55:50.904Z,100.00
2019-04-04T23:58:19.589Z,100.00
